Carson City, NV

10:03 AM PDT on July 26, 2017 (GMT -0700)
Carson

Weather History for KCXP - September, 2013

Change the Weather History Date:

Monday, September 16, 2013

  Actual Average Record
Temperature  
Mean Temperature 70 °F -  
Max Temperature 86 °F 79 °F 86 °F (2013)
Min Temperature 53 °F 38 °F 39 °F (2016)
Cooling Degree Days 4    
Growing Degree Days 20 (Base 50)    
Moisture  
Dew Point 33 °F    
Average Humidity 27    
Maximum Humidity 44    
Minimum Humidity 13    
Precipitation  
Precipitation 0.00 in - - ()
Sea Level Pressure  
Sea Level Pressure 29.97 in    
Wind  
Wind Speed 6 mph (WSW)    
Max Wind Speed 20 mph    
Max Gust Speed 28 mph    
Visibility 10 miles    
Events      
Averages and records for this station are not official NWS values.
T = Trace of Precipitation, MM = Missing Value Source: NWS Daily Summary

Daily Weather History Graph

Daily Weather History Graph

Search for Another Location

Airport or City:

Trip Planner

Search our weather history database for the weather conditions in past years. The results will help you decide how hot, cold, wet, or windy it might be!

Date:

Astronomy

Sep. 16, 2013 Rise Set
Actual Time 6:41 AM PDT 7:05 PM PDT
Civil Twilight 6:14 AM PDT 7:31 PM PDT
Nautical Twilight 5:43 AM PDT 8:03 PM PDT
Astronomical Twilight 5:10 AM PDT 8:35 PM PDT
Moon 5:16 PM PDT (9/16) 3:34 AM PDT (9/16)
Length of Visible Light 13h 17m
Length of Day
12h 23m
Waxing Gibbous, 91% of the Moon is Illuminated
Sep 16
Waxing Gibbous
Sep 19
Full
Sep 26
Last Quarter
Oct 4
New
Oct 11
First Quarter

Hourly Weather History & Observations

Time (PDT) Temp. Dew Point Humidity Pressure Visibility Wind Dir Wind Speed Gust Speed Precip Events Conditions
12:15 AM 66.2 °F 32.0 °F 28% 29.99 in 10.0 mi SW 6.9 mph - N/A   Clear
12:35 AM 66.2 °F 32.0 °F 28% 29.99 in 10.0 mi SW 6.9 mph - N/A   Clear
12:55 AM 64.4 °F 32.0 °F 30% 29.99 in 10.0 mi SW 4.6 mph - N/A   Clear
1:15 AM 64.4 °F 32.0 °F 30% 29.99 in 10.0 mi SW 5.8 mph - N/A   Clear
1:35 AM 66.2 °F 32.0 °F 28% 30.00 in 10.0 mi SW 4.6 mph - N/A   Clear
1:55 AM 64.4 °F 32.0 °F 30% 30.00 in 10.0 mi SW 4.6 mph - N/A   Clear
2:15 AM 59.0 °F 32.0 °F 36% 30.00 in 10.0 mi Calm Calm - N/A   Clear
2:35 AM 59.0 °F 32.0 °F 36% 30.00 in 10.0 mi Calm Calm - N/A   Clear
2:55 AM 59.0 °F 32.0 °F 36% 30.00 in 10.0 mi SE 3.5 mph - N/A   Clear
3:15 AM 59.0 °F 32.0 °F 36% 30.00 in 10.0 mi Calm Calm - N/A   Clear
3:35 AM 57.2 °F 32.0 °F 38% 30.00 in 10.0 mi NNW 3.5 mph - N/A   Clear
3:55 AM 55.4 °F 32.0 °F 41% 30.00 in 10.0 mi North 3.5 mph - N/A   Clear
4:15 AM 55.4 °F 32.0 °F 41% 30.00 in 10.0 mi NNW 3.5 mph - N/A   Clear
4:35 AM 55.4 °F 32.0 °F 41% 30.00 in 10.0 mi Calm Calm - N/A   Clear
4:55 AM 55.4 °F 32.0 °F 41% 30.00 in 10.0 mi Calm Calm - N/A   Clear
5:15 AM 55.4 °F 32.0 °F 41% 30.01 in 10.0 mi Calm Calm - N/A   Clear
5:35 AM 55.4 °F 32.0 °F 41% 30.01 in 10.0 mi Calm Calm - N/A   Clear
5:55 AM 53.6 °F 32.0 °F 44% 30.01 in 10.0 mi Calm Calm - N/A   Clear
6:15 AM 55.4 °F 32.0 °F 41% 30.01 in 10.0 mi Calm Calm - N/A   Clear
6:35 AM 53.6 °F 32.0 °F 44% 30.02 in 10.0 mi Calm Calm - N/A   Clear
6:55 AM 53.6 °F 32.0 °F 44% 30.02 in 10.0 mi Calm Calm - N/A   Clear
7:15 AM 53.6 °F 32.0 °F 44% 30.03 in 10.0 mi Calm Calm - N/A   Clear
7:35 AM 57.2 °F 33.8 °F 41% 30.03 in 10.0 mi Calm Calm - N/A   Clear
7:55 AM 59.0 °F 33.8 °F 39% 30.03 in 10.0 mi Calm Calm - N/A   Clear
8:15 AM 62.6 °F 32.0 °F 32% 30.03 in 10.0 mi Calm Calm - N/A   Clear
8:35 AM 64.4 °F 32.0 °F 30% 30.03 in 10.0 mi Calm Calm - N/A   Clear
8:55 AM 68.0 °F 33.8 °F 28% 30.03 in 10.0 mi Calm Calm - N/A   Clear
9:15 AM 71.6 °F 32.0 °F 23% 30.03 in 10.0 mi Calm Calm - N/A   Clear
9:35 AM 73.4 °F 32.0 °F 22% 30.03 in 10.0 mi Calm Calm - N/A   Clear
9:55 AM 75.2 °F 32.0 °F 21% 30.02 in 10.0 mi ENE 3.5 mph - N/A   Clear
10:15 AM 75.2 °F 32.0 °F 21% 30.02 in 10.0 mi East 4.6 mph - N/A   Clear
10:35 AM 78.8 °F 28.4 °F 16% 30.01 in 10.0 mi East 4.6 mph - N/A   Clear
10:55 AM 80.6 °F 28.4 °F 15% 30.01 in 10.0 mi East 4.6 mph - N/A   Clear
11:15 AM 82.4 °F 28.4 °F 14% 30.01 in 10.0 mi ENE 4.6 mph - N/A   Clear
11:35 AM 80.6 °F 32.0 °F 17% 30.00 in 10.0 mi SW 4.6 mph - N/A   Clear
11:55 AM 82.4 °F 30.2 °F 15% 30.00 in 10.0 mi SW 3.5 mph - N/A   Clear
12:15 PM 82.4 °F 30.2 °F 15% 29.99 in 10.0 mi NW 4.6 mph - N/A   Clear
12:35 PM 84.2 °F 30.2 °F 14% 29.99 in 10.0 mi SE 4.6 mph - N/A   Clear
12:55 PM 84.2 °F 30.2 °F 14% 29.98 in 10.0 mi SW 8.1 mph - N/A   Clear
1:15 PM 86.0 °F 32.0 °F 14% 29.97 in 10.0 mi SW 17.3 mph 21.9 mph N/A   Clear
1:35 PM 86.0 °F 32.0 °F 14% 29.96 in 10.0 mi West 15.0 mph 26.5 mph N/A   Clear
1:55 PM 86.0 °F 32.0 °F 14% 29.95 in 10.0 mi WSW 11.5 mph 24.2 mph N/A   Clear
2:15 PM 86.0 °F 32.0 °F 14% 29.95 in 10.0 mi West 15.0 mph 23.0 mph N/A   Clear
2:35 PM 86.0 °F 32.0 °F 14% 29.94 in 10.0 mi WSW 15.0 mph 23.0 mph N/A   Clear
2:55 PM 86.0 °F 32.0 °F 14% 29.93 in 10.0 mi WSW 16.1 mph 27.6 mph N/A   Clear
3:15 PM 86.0 °F 30.2 °F 13% 29.93 in 10.0 mi WSW 13.8 mph 25.3 mph N/A   Clear
3:35 PM 84.2 °F 30.2 °F 14% 29.92 in 10.0 mi West 17.3 mph 25.3 mph N/A   Clear
3:55 PM 84.2 °F 28.4 °F 13% 29.91 in 10.0 mi WSW 13.8 mph 27.6 mph N/A   Clear
4:15 PM 84.2 °F 30.2 °F 14% 29.91 in 10.0 mi WSW 19.6 mph 23.0 mph N/A   Clear
4:35 PM 84.2 °F 32.0 °F 15% 29.91 in 10.0 mi West 16.1 mph 23.0 mph N/A   Clear
4:55 PM 84.2 °F 28.4 °F 13% 29.91 in 10.0 mi West 18.4 mph 26.5 mph N/A   Clear
5:15 PM 82.4 °F 28.4 °F 14% 29.91 in 10.0 mi West 11.5 mph 21.9 mph N/A   Clear
5:35 PM 82.4 °F 35.6 °F 19% 29.90 in 10.0 mi WNW 15.0 mph 24.2 mph N/A   Clear
5:55 PM 80.6 °F 37.4 °F 21% 29.91 in 10.0 mi West 11.5 mph 20.7 mph N/A   Clear
6:15 PM 78.8 °F 39.2 °F 24% 29.90 in 10.0 mi WNW 17.3 mph 25.3 mph N/A   Clear
6:35 PM 77.0 °F 39.2 °F 26% 29.90 in 10.0 mi West 11.5 mph 20.7 mph N/A   Clear
6:55 PM 75.2 °F 39.2 °F 27% 29.90 in 10.0 mi West 8.1 mph - N/A   Partly Cloudy
7:15 PM 75.2 °F 41.0 °F 29% 29.90 in 10.0 mi WSW 10.4 mph 19.6 mph N/A   Clear
7:35 PM 73.4 °F 41.0 °F 31% 29.91 in 10.0 mi WSW 8.1 mph 21.9 mph N/A   Clear
7:55 PM 73.4 °F 41.0 °F 31% 29.91 in 10.0 mi West 13.8 mph 19.6 mph N/A   Clear
8:15 PM 71.6 °F 41.0 °F 33% 29.91 in 10.0 mi West 9.2 mph - N/A   Clear
8:35 PM 71.6 °F 39.2 °F 31% 29.92 in 10.0 mi West 8.1 mph - N/A   Clear
8:55 PM 71.6 °F 39.2 °F 31% 29.92 in 10.0 mi West 10.4 mph 16.1 mph N/A   Clear
9:15 PM 71.6 °F 41.0 °F 33% 29.93 in 10.0 mi West 9.2 mph - N/A   Clear
9:35 PM 69.8 °F 41.0 °F 35% 29.93 in 10.0 mi West 8.1 mph 16.1 mph N/A   Clear
9:55 PM 69.8 °F 39.2 °F 33% 29.93 in 10.0 mi WSW 3.5 mph - N/A   Clear
10:15 PM 66.2 °F 39.2 °F 37% 29.93 in 10.0 mi South 3.5 mph - N/A   Clear
10:35 PM 66.2 °F 39.2 °F 37% 29.93 in 10.0 mi SSW 4.6 mph - N/A   Clear
10:55 PM 68.0 °F 37.4 °F 33% 29.93 in 10.0 mi SW 4.6 mph - N/A   Clear
11:15 PM 66.2 °F 37.4 °F 35% 29.93 in 10.0 mi WSW 3.5 mph - N/A   Clear
11:35 PM 68.0 °F 32.0 °F 26% 29.93 in 10.0 mi SW 10.4 mph - N/A   Clear
11:55 PM 68.0 °F 32.0 °F 26% 29.93 in 10.0 mi WSW 9.2 mph - N/A   Clear